createdAt,value
2017-09-17T10:50:55.615Z,18.5
2017-09-17T10:52:03.343Z,18.6
2017-09-17T10:53:10.822Z,18.4
2017-09-17T10:54:18.303Z,18.4
2017-09-17T10:55:25.778Z,18.4
2017-09-17T10:56:33.256Z,18.5
2017-09-17T10:57:40.989Z,18.4
2017-09-17T10:58:48.128Z,18.4
2017-09-17T10:59:55.611Z,18.4
2017-09-17T11:01:03.086Z,18.4
2017-09-17T11:02:10.230Z,18.5
2017-09-17T11:03:18.005Z,18.4
2017-09-17T11:04:25.111Z,18.2
2017-09-17T11:05:32.257Z,18.4
2017-09-17T11:06:39.759Z,18.6
2017-09-17T11:07:46.904Z,18.7
2017-09-17T11:08:54.152Z,18.8
2017-09-17T11:10:01.629Z,18.6
2017-09-17T11:11:09.121Z,18.5
2017-09-17T11:12:16.263Z,18.4
2017-09-17T11:13:23.761Z,18.4
2017-09-17T11:14:31.332Z,18.3
2017-09-17T11:15:38.807Z,18.2
2017-09-17T11:16:46.285Z,18.2
2017-09-17T11:17:53.427Z,18
2017-09-17T11:19:00.901Z,18
2017-09-17T11:20:08.729Z,17.9
2017-09-17T11:21:16.243Z,17.9
2017-09-17T11:22:23.414Z,18.1
2017-09-17T11:23:30.900Z,18.2
2017-09-17T11:24:38.379Z,18.2
2017-09-17T11:25:46.213Z,18.1
2017-09-17T11:26:53.685Z,18.2
2017-09-17T11:28:01.164Z,18.2
2017-09-17T11:29:08.645Z,18.2
2017-09-17T11:30:16.128Z,18.1
2017-09-17T11:31:23.606Z,18.2
2017-09-17T11:32:30.757Z,18.1
2017-09-17T11:33:38.534Z,18.1
2017-09-17T11:34:46.011Z,18.4
2017-09-17T11:35:53.487Z,18.7
2017-09-17T11:37:00.640Z,19.1
2017-09-17T11:38:07.778Z,19.2
2017-09-17T11:39:15.021Z,19.1
2017-09-17T11:40:22.499Z,18.9
2017-09-17T11:41:29.976Z,18.8
2017-09-17T11:42:37.465Z,18.7
2017-09-17T11:43:44.939Z,18.7
2017-09-17T11:44:52.517Z,18.7
2017-09-17T11:45:59.997Z,18.6
2017-09-17T11:47:07.471Z,18.6
2017-09-17T11:48:14.950Z,18.4
2017-09-17T11:49:22.095Z,18.1
2017-09-17T11:50:29.580Z,18.1
2017-09-17T11:51:37.050Z,18.2
2017-09-17T11:52:44.538Z,18.1
2017-09-17T11:53:52.010Z,18.2
2017-09-17T11:54:59.484Z,18.3
2017-09-17T11:56:07.062Z,18.3
2017-09-17T11:57:14.538Z,18.3
2017-09-17T11:58:22.008Z,18.2
2017-09-17T11:59:29.139Z,18.2
2017-09-17T12:00:36.616Z,18.3
2017-09-17T12:01:44.192Z,18.2
2017-09-17T12:02:51.669Z,18.1
2017-09-17T12:03:59.137Z,18.1
2017-09-17T12:05:06.613Z,18.2
2017-09-17T12:06:14.096Z,18.1
2017-09-17T12:07:21.668Z,18.2
2017-09-17T12:08:29.176Z,18.5
2017-09-17T12:09:36.634Z,18.8
2017-09-17T12:10:44.107Z,19
2017-09-17T12:11:51.233Z,19.3
2017-09-17T12:12:58.381Z,19.6
2017-09-17T12:14:05.866Z,19.8
2017-09-17T12:15:13.343Z,19.8
2017-09-17T12:16:20.820Z,19.4
2017-09-17T12:17:28.303Z,19.5
2017-09-17T12:18:35.784Z,19.5
2017-09-17T12:19:43.265Z,19.7
2017-09-17T12:20:50.410Z,20.1
2017-09-17T12:21:57.885Z,20.1
2017-09-17T12:23:05.366Z,20
2017-09-17T12:24:12.847Z,19.9
2017-09-17T12:25:20.422Z,19.7
2017-09-17T12:26:27.575Z,19.6
2017-09-17T12:27:35.051Z,19.5
2017-09-17T12:28:42.523Z,19.7
2017-09-17T12:29:50.000Z,20
2017-09-17T12:30:57.579Z,20.1
2017-09-17T12:32:05.053Z,20.1
2017-09-17T12:33:12.530Z,20.4
2017-09-17T12:34:20.011Z,20.6
2017-09-17T12:35:27.157Z,20.8
2017-09-17T12:36:34.732Z,20.7
2017-09-17T12:37:41.876Z,20.6
2017-09-17T12:38:49.355Z,20.5
2017-09-17T12:39:56.834Z,20.6
2017-09-17T12:41:04.312Z,20.7
2017-09-17T12:42:11.783Z,20.2
2017-09-17T12:43:19.263Z,20.3
2017-09-17T12:44:26.739Z,20.5
2017-09-17T12:45:33.565Z,20.8
2017-09-17T12:46:41.041Z,21
2017-09-17T12:47:48.519Z,21.2
2017-09-17T12:48:55.664Z,21.6
2017-09-17T12:50:02.803Z,21.6
2017-09-17T12:51:10.283Z,20.9
2017-09-17T12:52:18.117Z,20.4
2017-09-17T12:53:25.597Z,19.8
2017-09-17T12:54:33.076Z,19.4
2017-09-17T12:55:40.561Z,19.4
2017-09-17T12:56:47.714Z,19.4
2017-09-17T12:57:55.210Z,19.7
2017-09-17T12:59:02.686Z,20.2
2017-09-17T13:00:10.166Z,20.9
2017-09-17T13:01:17.649Z,21.3
2017-09-17T13:02:25.133Z,21.8
2017-09-17T13:03:32.719Z,21.9
2017-09-17T13:04:40.200Z,21.5
2017-09-17T13:05:47.680Z,21.5
2017-09-17T13:06:55.156Z,21.9
2017-09-17T13:08:02.635Z,22.3
2017-09-17T13:09:10.121Z,22.2
2017-09-17T13:10:17.601Z,21.7
2017-09-17T13:11:24.740Z,21.4
2017-09-17T13:12:32.251Z,21
2017-09-17T13:13:40.086Z,20.8
2017-09-17T13:14:47.561Z,21
2017-09-17T13:15:55.043Z,21.3
2017-09-17T13:17:02.518Z,21.4
2017-09-17T13:18:10.006Z,21.2
2017-09-17T13:19:17.835Z,21
2017-09-17T13:20:25.316Z,21
2017-09-17T13:21:32.131Z,21
2017-09-17T13:22:39.277Z,20.9
2017-09-17T13:23:46.752Z,20.6
2017-09-17T13:24:54.595Z,20.1
2017-09-17T13:26:02.077Z,19.7
2017-09-17T13:27:09.230Z,19.3
2017-09-17T13:28:16.706Z,19
2017-09-17T13:29:24.186Z,18.8
2017-09-17T13:30:31.966Z,18.8
2017-09-17T13:31:39.442Z,19
2017-09-17T13:32:46.926Z,18.9
2017-09-17T13:33:54.404Z,18.9
2017-09-17T13:35:01.923Z,18.6
2017-09-17T13:36:09.707Z,18.5
2017-09-17T13:37:17.190Z,18.6
2017-09-17T13:38:24.674Z,18.6
2017-09-17T13:39:32.155Z,18.4
2017-09-17T13:40:39.635Z,18.4
2017-09-17T13:41:47.114Z,18.3
2017-09-17T13:42:54.944Z,18.5
2017-09-17T13:44:02.103Z,18.3
2017-09-17T13:45:09.582Z,18.1
2017-09-17T13:46:17.294Z,18.2
2017-09-17T13:47:24.433Z,18.4
2017-09-17T13:48:31.675Z,18.5
2017-09-17T13:49:39.152Z,18.3
2017-09-17T13:50:46.629Z,18.3
2017-09-17T13:51:54.104Z,18.3
2017-09-17T13:53:01.253Z,18.3
2017-09-17T13:54:08.707Z,18.4
2017-09-17T13:55:16.182Z,18.6
2017-09-17T13:56:23.328Z,18.6
2017-09-17T13:57:30.834Z,18.6
2017-09-17T13:58:38.308Z,18.6
2017-09-17T13:59:46.086Z,18.6
2017-09-17T14:00:53.564Z,18.4
2017-09-17T14:02:01.040Z,18.3
2017-09-17T14:03:08.519Z,18.3
2017-09-17T14:04:15.995Z,18.3
2017-09-17T14:05:23.729Z,18.4
2017-09-17T14:06:31.201Z,18.4
2017-09-17T14:07:38.675Z,18.5
2017-09-17T14:08:46.157Z,18.4
2017-09-17T14:09:53.632Z,18.4
2017-09-17T14:11:01.109Z,18.4
2017-09-17T14:12:08.591Z,18.4
2017-09-17T14:13:16.065Z,18.3
2017-09-17T14:14:23.542Z,18.3
2017-09-17T14:15:31.017Z,18
2017-09-17T14:16:38.798Z,17.7
2017-09-17T14:17:46.271Z,17.7
2017-09-17T14:18:53.745Z,17.8
2017-09-17T14:20:01.224Z,17.8
2017-09-17T14:21:08.703Z,17.8
2017-09-17T14:22:16.430Z,17.5
2017-09-17T14:23:23.589Z,17.4
2017-09-17T14:24:31.067Z,17.4
2017-09-17T14:25:38.212Z,17.2
2017-09-17T14:26:46.364Z,17.2
2017-09-17T14:27:53.842Z,17.3
2017-09-17T14:29:01.325Z,17.4
2017-09-17T14:30:08.803Z,17.5
2017-09-17T14:31:16.282Z,17.6
2017-09-17T14:32:23.430Z,17.7
2017-09-17T14:33:31.205Z,17.7
2017-09-17T14:34:38.684Z,17.7
2017-09-17T14:35:46.162Z,17.9
2017-09-17T14:36:53.310Z,17.9
2017-09-17T14:38:00.790Z,17.9
2017-09-17T14:39:08.366Z,17.8
2017-09-17T14:40:15.847Z,17.6
2017-09-17T14:41:23.321Z,17.6
2017-09-17T14:42:30.460Z,17.6
2017-09-17T14:43:37.937Z,17.5
2017-09-17T14:44:45.512Z,17.5
2017-09-17T14:45:52.990Z,17.4
2017-09-17T14:47:00.130Z,17.4
2017-09-17T14:48:07.612Z,17.2
2017-09-17T14:49:15.090Z,17.2
2017-09-17T14:50:22.566Z,17.1
2017-09-17T14:51:30.070Z,17.1
2017-09-17T14:52:37.216Z,17.1
2017-09-17T14:53:44.699Z,17
2017-09-17T14:54:51.936Z,17
2017-09-17T14:55:59.085Z,16.9
2017-09-17T14:57:06.557Z,16.9
2017-09-17T14:58:14.029Z,16.9
2017-09-17T14:59:21.175Z,17
2017-09-17T15:00:28.078Z,17
2017-09-17T15:01:35.562Z,16.9
2017-09-17T15:02:43.045Z,17
2017-09-17T15:03:50.513Z,17
2017-09-17T15:04:57.992Z,17
2017-09-17T15:06:05.233Z,17
2017-09-17T15:07:12.765Z,17
2017-09-17T15:08:20.403Z,17.1
2017-09-17T15:09:27.876Z,17.2
2017-09-17T15:10:35.354Z,17.2
2017-09-17T15:11:42.497Z,17.1
2017-09-17T15:12:49.975Z,17.1
2017-09-17T15:13:57.448Z,17.1
2017-09-17T15:15:04.923Z,17
2017-09-17T15:16:12.397Z,16.9
2017-09-17T15:17:20.171Z,17
2017-09-17T15:18:27.648Z,16.9
2017-09-17T15:19:35.123Z,16.9
2017-09-17T15:20:42.600Z,16.9
2017-09-17T15:21:50.075Z,16.9
2017-09-17T15:22:57.851Z,16.8
2017-09-17T15:24:05.328Z,16.8
2017-09-17T15:25:12.805Z,16.9
2017-09-17T15:26:20.283Z,17.2
2017-09-17T15:27:27.757Z,17.5
2017-09-17T15:28:35.199Z,17.9
2017-09-17T15:29:42.678Z,18.2
2017-09-17T15:30:50.155Z,18.2
2017-09-17T15:31:57.630Z,18.1
2017-09-17T15:33:04.773Z,17.9
2017-09-17T15:34:12.255Z,17.5
2017-09-17T15:35:19.734Z,17.4
2017-09-17T15:36:26.878Z,17.4
2017-09-17T15:37:34.025Z,17.3
2017-09-17T15:38:41.497Z,17.3
2017-09-17T15:39:48.996Z,17.3
2017-09-17T15:40:56.483Z,17.2
2017-09-17T15:42:03.960Z,17.2
2017-09-17T15:43:11.437Z,17.1
2017-09-17T15:44:18.908Z,17.1
2017-09-17T15:45:26.356Z,17.2
2017-09-17T15:46:33.837Z,17.2
2017-09-17T15:47:41.310Z,17.3
2017-09-17T15:48:48.786Z,17.4
2017-09-17T15:49:56.257Z,17.4
2017-09-17T15:51:03.740Z,17.4
2017-09-17T15:52:11.214Z,17.4
2017-09-17T15:53:18.701Z,17.4
2017-09-17T15:54:26.174Z,17.2
2017-09-17T15:55:33.539Z,17.2
2017-09-17T15:56:41.313Z,17.4
2017-09-17T15:57:48.455Z,17.6
2017-09-17T15:58:55.927Z,17.9
2017-09-17T16:00:17.664Z,18.2
2017-09-17T16:01:25.140Z,18.4
2017-09-17T16:02:32.918Z,18.5
2017-09-17T16:03:40.395Z,18.7
2017-09-17T16:04:47.872Z,18.7
2017-09-17T16:05:55.015Z,18.7
2017-09-17T16:07:02.488Z,18.6
2017-09-17T16:08:09.968Z,18.6
2017-09-17T16:09:17.446Z,18.5
2017-09-17T16:10:24.917Z,18.5
2017-09-17T16:11:32.055Z,18.5
2017-09-17T16:12:39.210Z,18.4
2017-09-17T16:13:46.654Z,18.3
2017-09-17T16:14:53.804Z,18.2
2017-09-17T16:16:01.280Z,18.3
2017-09-17T16:17:08.763Z,18.3
2017-09-17T16:18:16.239Z,18.4
2017-09-17T16:19:24.011Z,18.5
2017-09-17T16:20:31.494Z,18.5
2017-09-17T16:21:38.970Z,18.5
2017-09-17T16:22:46.464Z,18.4
2017-09-17T16:23:53.605Z,18.4
2017-09-17T16:25:01.384Z,18.3
2017-09-17T16:26:08.527Z,18.2
2017-09-17T16:27:16.007Z,18.1
2017-09-17T16:28:23.484Z,18
2017-09-17T16:29:30.624Z,17.8
2017-09-17T16:30:38.404Z,17.7
2017-09-17T16:31:45.880Z,17.6
2017-09-17T16:32:53.359Z,17.4
2017-09-17T16:34:00.836Z,17.3
2017-09-17T16:35:08.309Z,17.3
2017-09-17T16:36:15.756Z,17.3
2017-09-17T16:37:23.234Z,17.3
2017-09-17T16:38:30.710Z,17.2
2017-09-17T16:39:38.186Z,17.1
2017-09-17T16:40:45.664Z,17
2017-09-17T16:41:53.440Z,16.8
2017-09-17T16:43:00.914Z,16.5
2017-09-17T16:44:08.413Z,16.3
2017-09-17T16:45:15.553Z,16.1
2017-09-17T16:46:23.031Z,15.9
2017-09-17T16:47:30.505Z,15.6
2017-09-17T16:48:37.646Z,15.4
2017-09-17T16:49:45.125Z,15.3
2017-09-17T16:50:52.601Z,15.2
2017-09-17T16:52:00.052Z,15.2
2017-09-17T16:53:07.531Z,15.1
2017-09-17T16:54:15.022Z,15.1
2017-09-17T16:55:21.825Z,15.1
2017-09-17T16:56:29.298Z,15.1
2017-09-17T16:57:37.074Z,15
2017-09-17T16:58:44.554Z,14.8
2017-09-17T16:59:50.992Z,14.7
2017-09-17T17:00:58.465Z,14.6
2017-09-17T17:02:05.940Z,14.6
2017-09-17T17:03:13.715Z,14.6
2017-09-17T17:04:21.189Z,14.6
2017-09-17T17:05:28.664Z,14.6
2017-09-17T17:06:36.142Z,14.5
2017-09-17T17:07:43.288Z,14.5
2017-09-17T17:08:51.086Z,14.4
2017-09-17T17:09:58.563Z,14.2
2017-09-17T17:11:05.705Z,14.1
2017-09-17T17:12:12.857Z,14
2017-09-17T17:13:20.332Z,13.9
2017-09-17T17:14:27.777Z,13.9
2017-09-17T17:15:34.917Z,13.8
2017-09-17T17:16:42.398Z,13.7
2017-09-17T17:17:49.217Z,13.6
2017-09-17T17:18:56.356Z,13.5
2017-09-17T17:20:03.834Z,13.5
2017-09-17T17:21:10.983Z,13.4
2017-09-17T17:22:18.126Z,13.4
2017-09-17T17:23:25.281Z,13.3
2017-09-17T17:24:32.097Z,13.2
2017-09-17T17:25:39.569Z,13.2
2017-09-17T17:26:47.411Z,13.2
2017-09-17T17:27:54.554Z,13.1
2017-09-17T17:29:01.696Z,13.1
2017-09-17T17:30:08.838Z,13.1
2017-09-17T17:31:15.977Z,13.1
2017-09-17T17:32:23.798Z,13.1
2017-09-17T17:33:31.275Z,13.1
2017-09-17T17:34:38.747Z,13
2017-09-17T17:35:45.565Z,12.9
2017-09-17T17:36:52.733Z,12.8
2017-09-17T17:38:00.214Z,12.7
2017-09-17T17:39:07.687Z,12.7
2017-09-17T17:40:14.831Z,12.6
2017-09-17T17:41:21.640Z,12.6
2017-09-17T17:42:29.112Z,12.5
2017-09-17T17:43:36.593Z,12.5
2017-09-17T17:44:44.076Z,12.3
2017-09-17T17:45:51.218Z,12.2
2017-09-17T17:46:58.694Z,12.2
2017-09-17T17:48:05.834Z,12.1
2017-09-17T17:49:13.605Z,12
2017-09-17T17:50:21.081Z,11.9
2017-09-17T17:51:28.226Z,11.9
2017-09-17T17:52:35.696Z,11.9
2017-09-17T17:53:42.840Z,11.9
2017-09-17T17:54:50.611Z,11.9
2017-09-17T17:55:57.757Z,11.8
2017-09-17T17:57:04.904Z,11.7
2017-09-17T17:58:12.378Z,11.8
2017-09-17T17:59:19.848Z,11.7
2017-09-17T18:00:27.324Z,11.7
2017-09-17T18:01:34.125Z,11.7
2017-09-17T18:02:41.605Z,11.6
2017-09-17T18:03:49.082Z,11.5
2017-09-17T18:04:56.567Z,11.5
2017-09-17T18:06:04.340Z,11.4
2017-09-17T18:07:11.809Z,11.5
2017-09-17T18:08:18.954Z,11.4
2017-09-17T18:09:26.426Z,11.3
2017-09-17T18:10:33.568Z,11.3
2017-09-17T18:11:40.394Z,11.2
2017-09-17T18:12:47.536Z,11.1
2017-09-17T18:13:54.674Z,11
2017-09-17T18:15:01.824Z,11
2017-09-17T18:16:09.294Z,11
2017-09-17T18:17:16.787Z,11
2017-09-17T18:18:24.258Z,10.9
2017-09-17T18:19:31.394Z,10.8
2017-09-17T18:20:38.549Z,10.8
2017-09-17T18:21:46.021Z,10.8
2017-09-17T18:22:53.161Z,10.8
2017-09-17T18:24:00.635Z,10.7
2017-09-17T18:25:07.780Z,10.6
2017-09-17T18:26:14.598Z,10.5
2017-09-17T18:27:21.759Z,10.5
2017-09-17T18:28:29.234Z,10.5
2017-09-17T18:29:36.705Z,10.5
2017-09-17T18:30:43.851Z,10.5
2017-09-17T18:31:50.991Z,10.5
2017-09-17T18:32:58.808Z,10.4
2017-09-17T18:34:05.287Z,10.4
2017-09-17T18:35:12.433Z,10.3
2017-09-17T18:36:19.237Z,10.3
2017-09-17T18:37:26.381Z,10.2
2017-09-17T18:38:33.536Z,10.2
2017-09-17T18:39:41.011Z,10.1
2017-09-17T18:40:48.477Z,10.1
2017-09-17T18:41:55.950Z,10.1
2017-09-17T18:43:03.088Z,10.1
2017-09-17T18:44:25.493Z,10.1
2017-09-17T18:45:32.627Z,10
2017-09-17T18:46:40.098Z,9.9
2017-09-17T18:47:47.569Z,9.9
2017-09-17T18:48:54.712Z,9.8
2017-09-17T18:50:02.186Z,9.8
2017-09-17T18:51:09.006Z,9.8
2017-09-17T18:52:16.481Z,9.8
2017-09-17T18:53:23.954Z,9.8
2017-09-17T18:54:31.777Z,9.7
2017-09-17T18:55:38.577Z,9.7
2017-09-17T18:56:45.378Z,9.6
2017-09-17T18:57:52.849Z,9.6
2017-09-17T18:58:59.666Z,9.5
2017-09-17T19:00:07.151Z,9.6
2017-09-17T19:01:14.626Z,9.5
2017-09-17T19:02:22.097Z,9.5
2017-09-17T19:03:29.581Z,9.5
2017-09-17T19:04:37.077Z,9.5
2017-09-17T19:05:44.558Z,9.5
2017-09-17T19:06:51.701Z,9.5
2017-09-17T19:07:59.179Z,9.5
2017-09-17T19:09:05.989Z,9.5
2017-09-17T19:10:13.464Z,9.5
2017-09-17T19:11:19.930Z,9.4
2017-09-17T19:12:27.067Z,9.4
2017-09-17T19:13:34.549Z,9.4
2017-09-17T19:14:41.693Z,9.3
2017-09-17T19:15:49.167Z,9.3
2017-09-17T19:16:56.311Z,9.3
2017-09-17T19:18:03.790Z,9.2
2017-09-17T19:19:11.259Z,9.2
2017-09-17T19:20:18.731Z,9.2
2017-09-17T19:21:25.893Z,9.1
2017-09-17T19:22:33.061Z,9.1
2017-09-17T19:23:40.208Z,9.1
2017-09-17T19:24:47.684Z,9.1
2017-09-17T19:25:54.827Z,9.1
2017-09-17T19:27:01.972Z,9.1
2017-09-17T19:28:09.455Z,9
2017-09-17T19:29:16.954Z,9
2017-09-17T19:30:23.775Z,9
2017-09-17T19:31:30.922Z,9
2017-09-17T19:32:38.393Z,9
2017-09-17T19:33:45.908Z,9
2017-09-17T19:34:53.389Z,9
2017-09-17T19:36:00.857Z,9
2017-09-17T19:37:08.328Z,9
2017-09-17T19:38:15.803Z,9
2017-09-17T19:39:23.629Z,9
2017-09-17T19:40:31.131Z,9
2017-09-17T19:41:38.624Z,9
2017-09-17T19:42:46.168Z,9.1
2017-09-17T19:43:53.647Z,9.1
2017-09-17T19:45:01.581Z,9
2017-09-17T19:46:09.058Z,9.1
2017-09-17T19:47:16.526Z,9.1
2017-09-17T19:48:24.043Z,9.1
2017-09-17T19:49:31.513Z,9.1
2017-09-17T19:50:39.016Z,9.1
2017-09-17T19:51:46.487Z,9.1
2017-09-17T19:52:53.968Z,9.1
2017-09-17T19:54:01.453Z,9.1
2017-09-17T19:55:08.927Z,9.1
2017-09-17T19:56:16.407Z,9.1
2017-09-17T19:57:23.889Z,9.1
2017-09-17T19:58:31.362Z,9.1
2017-09-17T19:59:38.835Z,9.1
2017-09-17T20:00:46.612Z,9.1
2017-09-17T20:01:54.107Z,9.1
2017-09-17T20:03:01.578Z,9.1
2017-09-17T20:04:09.055Z,9.1
2017-09-17T20:05:16.189Z,9
2017-09-17T20:06:25.410Z,9
2017-09-17T20:07:32.880Z,9
2017-09-17T20:08:39.704Z,9
2017-09-17T20:09:47.182Z,9
2017-09-17T20:10:54.661Z,9
2017-09-17T20:12:02.444Z,9
2017-09-17T20:13:09.916Z,8.9
2017-09-17T20:14:17.382Z,9
2017-09-17T20:15:24.855Z,9
2017-09-17T20:16:32.325Z,8.9
2017-09-17T20:17:39.813Z,8.9
2017-09-17T20:18:47.280Z,8.9
2017-09-17T20:19:54.754Z,8.9
2017-09-17T20:21:02.228Z,8.9
2017-09-17T20:22:09.369Z,8.9
2017-09-17T20:23:17.162Z,8.9
2017-09-17T20:24:24.632Z,8.9
2017-09-17T20:25:32.101Z,8.9
2017-09-17T20:26:39.243Z,8.9
2017-09-17T20:27:46.378Z,8.9
2017-09-17T20:28:54.148Z,8.9
2017-09-17T20:30:01.282Z,8.9
2017-09-17T20:31:08.749Z,8.9
2017-09-17T20:32:16.219Z,8.8
2017-09-17T20:33:23.684Z,8.8
2017-09-17T20:34:31.159Z,8.8
2017-09-17T20:35:38.645Z,8.8
2017-09-17T20:36:46.114Z,8.8
2017-09-17T20:37:53.587Z,8.8
2017-09-17T20:39:00.719Z,8.7
2017-09-17T20:40:08.164Z,8.7
2017-09-17T20:41:15.631Z,8.7
2017-09-17T20:42:23.108Z,8.7
2017-09-17T20:43:30.574Z,8.7
2017-09-17T20:44:38.044Z,8.7
2017-09-17T20:45:45.811Z,8.7
2017-09-17T20:46:53.282Z,8.7
2017-09-17T20:48:00.755Z,8.7
2017-09-17T20:49:07.895Z,8.7
2017-09-17T20:50:15.366Z,8.7
2017-09-17T20:51:22.831Z,8.7
2017-09-17T20:52:30.303Z,8.7
2017-09-17T20:53:37.779Z,8.7
2017-09-17T20:54:45.247Z,8.7
2017-09-17T20:55:52.716Z,8.7
2017-09-17T20:57:00.164Z,8.7
2017-09-17T20:58:07.298Z,8.6
2017-09-17T20:59:14.765Z,8.6
2017-09-17T21:00:22.229Z,8.6
2017-09-17T21:01:29.702Z,8.6
2017-09-17T21:02:37.471Z,8.6
2017-09-17T21:03:44.616Z,8.6
2017-09-17T21:04:52.084Z,8.6
2017-09-17T21:05:59.232Z,8.6
2017-09-17T21:07:06.700Z,8.6
2017-09-17T21:08:14.166Z,8.6
2017-09-17T21:09:21.635Z,8.6
2017-09-17T21:10:28.777Z,8.5
2017-09-17T21:11:36.251Z,8.5
2017-09-17T21:12:43.717Z,8.4
2017-09-17T21:13:51.539Z,8.4
2017-09-17T21:14:59.008Z,8.4
2017-09-17T21:16:06.495Z,8.4
2017-09-17T21:17:13.637Z,8.4
2017-09-17T21:18:21.106Z,8.4
2017-09-17T21:19:28.875Z,8.4
2017-09-17T21:20:36.014Z,8.3
2017-09-17T21:21:43.492Z,8.3
2017-09-17T21:22:50.959Z,8.3
2017-09-17T21:23:58.427Z,8.3
2017-09-17T21:25:06.202Z,8.3
2017-09-17T21:26:13.670Z,8.3
2017-09-17T21:27:21.142Z,8.3
2017-09-17T21:28:28.274Z,8.3
2017-09-17T21:29:35.745Z,8.3
2017-09-17T21:30:43.216Z,8.3
2017-09-17T21:31:50.352Z,8.3
2017-09-17T21:32:57.817Z,8.3
2017-09-17T21:34:05.284Z,8.3
2017-09-17T21:35:13.053Z,8.2
2017-09-17T21:36:20.521Z,8.2
2017-09-17T21:37:27.991Z,8.2
2017-09-17T21:38:35.472Z,8.1
2017-09-17T21:39:42.596Z,8.1
2017-09-17T21:40:50.364Z,8.1
2017-09-17T21:41:57.834Z,8.1
2017-09-17T21:43:05.310Z,8.1
2017-09-17T21:44:12.443Z,8
2017-09-17T21:45:19.919Z,8
2017-09-17T21:46:27.693Z,8
2017-09-17T21:47:35.173Z,8
2017-09-17T21:48:42.650Z,8
2017-09-17T21:49:50.110Z,8
2017-09-17T21:50:57.582Z,8
2017-09-17T21:52:05.352Z,8
2017-09-17T21:53:12.485Z,7.9
2017-09-17T21:54:19.631Z,7.9
2017-09-17T21:55:27.102Z,7.9
2017-09-17T21:56:34.237Z,7.9
2017-09-17T21:57:42.009Z,7.8
2017-09-17T21:58:49.477Z,7.8
2017-09-17T21:59:56.610Z,7.8
2017-09-17T22:01:03.743Z,7.8
2017-09-17T22:02:25.468Z,7.8
2017-09-17T22:03:33.233Z,7.8
2017-09-17T22:04:40.368Z,7.8
2017-09-17T22:05:47.833Z,7.8
2017-09-17T22:06:55.318Z,7.7
2017-09-17T22:08:02.782Z,7.7
2017-09-17T22:09:10.553Z,7.7
2017-09-17T22:10:17.690Z,7.7
2017-09-17T22:11:25.161Z,7.6
2017-09-17T22:12:32.631Z,7.6
2017-09-17T22:13:40.103Z,7.6
2017-09-17T22:14:47.872Z,7.6
2017-09-17T22:15:55.338Z,7.6
2017-09-17T22:17:02.803Z,7.5
2017-09-17T22:18:10.268Z,7.5
2017-09-17T22:19:17.405Z,7.5
2017-09-17T22:20:25.178Z,7.5
2017-09-17T22:21:32.306Z,7.5
2017-09-17T22:22:39.777Z,7.5
2017-09-17T22:23:47.241Z,7.5
2017-09-17T22:24:54.379Z,7.5
2017-09-17T22:26:01.816Z,7.5
2017-09-17T22:27:09.281Z,7.5
2017-09-17T22:28:31.001Z,7.4
2017-09-17T22:29:38.473Z,7.4
2017-09-17T22:30:45.939Z,7.4
